Time;durP1;ratioP1;P1;durP2;ratioP2;P2;SDS_P1;SDS_P2;PMS_P1;PMS_P2;Temp;Humidity;BMP_temperature;BMP_pressure;BME280_temperature;BME280_humidity;BME280_pressure;Samples;Min_cycle;Max_cycle;Signal;HPM_P1;HPM_P2
2023/02/17 00:02:41;;;;;;;6.43;3.10;;;;;;;;;;21079891;28;20135;-60
2023/02/17 00:12:42;;;;;;;7.20;3.35;;;;;;;;;;21083012;28;20512;-60
2023/02/17 00:22:44;;;;;;;11.23;5.50;;;;;;;;;;21095235;28;20063;-62
2023/02/17 00:32:46;;;;;;;8.93;4.35;;;;;;;;;;21094952;28;20040;-61
2023/02/17 00:42:47;;;;;;;10.43;5.07;;;;;;;;;;21093745;28;20051;-61
2023/02/17 00:52:50;;;;;;;9.88;5.47;;;;;;;;;;21092845;28;20052;-61
2023/02/17 01:02:52;;;;;;;12.20;6.25;;;;;;;;;;21091870;28;20134;-60
2023/02/17 01:12:54;;;;;;;8.77;5.00;;;;;;;;;;21092286;28;20058;-61
2023/02/17 01:22:55;;;;;;;12.50;5.00;;;;;;;;;;21090038;28;20056;-61
2023/02/17 01:32:57;;;;;;;8.18;4.22;;;;;;;;;;21090037;28;20051;-61
2023/02/17 01:43:06;;;;;;;9.13;3.83;;;;;;;;;;21089153;28;20098;-60
2023/02/17 01:53:40;;;;;;;9.38;4.70;;;;;;;;;;21088552;28;20055;-61
2023/02/17 02:04:04;;;;;;;6.93;3.90;;;;;;;;;;21071952;28;20055;-61
2023/02/17 02:14:25;;;;;;;6.40;3.75;;;;;;;;;;21089789;28;20486;-62
2023/02/17 02:25:10;;;;;;;9.48;4.68;;;;;;;;;;21087274;28;20048;-61
2023/02/17 02:35:51;;;;;;;7.15;3.78;;;;;;;;;;20665627;28;20054;-61
2023/02/17 02:46:12;;;;;;;;;;;;;;;;;;20739939;28;20057;-62
2023/02/17 02:56:35;;;;;;;6.68;3.13;;;;;;;;;;20745947;28;19981;-62
2023/02/17 03:07:01;;;;;;;7.82;3.92;;;;;;;;;;20835648;28;20538;-61
2023/02/17 03:17:22;;;;;;;7.90;3.70;;;;;;;;;;20999899;28;20074;-62
2023/02/17 03:27:40;;;;;;;5.60;3.17;;;;;;;;;;20998580;28;20048;-62
2023/02/17 03:37:55;;;;;;;9.88;3.60;;;;;;;;;;21005334;28;20084;-62
2023/02/17 03:48:10;;;;;;;5.55;3.25;;;;;;;;;;21080178;28;20180;-61
2023/02/17 03:58:14;;;;;;;7.55;3.63;;;;;;;;;;21080583;28;20515;-62
2023/02/17 04:08:17;;;;;;;8.35;3.78;;;;;;;;;;21078781;28;20101;-61
2023/02/17 04:18:20;;;;;;;8.30;3.58;;;;;;;;;;21078785;28;20113;-61
2023/02/17 04:28:23;;;;;;;9.50;3.78;;;;;;;;;;21079491;28;20131;-61
2023/02/17 04:38:28;;;;;;;7.03;3.95;;;;;;;;;;21078816;28;20050;-62
2023/02/17 04:48:32;;;;;;;7.95;3.53;;;;;;;;;;21078394;28;20521;-61
2023/02/17 04:58:36;;;;;;;6.68;3.85;;;;;;;;;;21080318;28;20048;-62
2023/02/17 05:08:38;;;;;;;8.40;3.60;;;;;;;;;;21092108;28;20059;-61
2023/02/17 05:18:40;;;;;;;7.68;3.78;;;;;;;;;;21091442;28;20047;-62
2023/02/17 05:28:42;;;;;;;7.38;3.97;;;;;;;;;;21092319;28;20121;-62
2023/02/17 05:38:47;;;;;;;7.78;4.25;;;;;;;;;;21090862;28;20132;-60
2023/02/17 05:48:49;;;;;;;7.75;3.78;;;;;;;;;;21090072;28;20044;-59
2023/02/17 05:58:51;;;;;;;8.68;4.30;;;;;;;;;;21089116;28;20055;-60
2023/02/17 06:08:53;;;;;;;9.20;4.10;;;;;;;;;;21085873;28;20095;-60
2023/02/17 06:18:54;;;;;;;7.22;4.00;;;;;;;;;;21087392;28;20477;-60
2023/02/17 06:28:56;;;;;;;9.27;4.18;;;;;;;;;;21085404;28;20105;-62
2023/02/17 06:38:58;;;;;;;11.23;5.13;;;;;;;;;;21085776;28;20052;-62
2023/02/17 06:49:00;;;;;;;9.23;5.35;;;;;;;;;;21086161;28;20375;-59
2023/02/17 06:59:03;;;;;;;15.32;5.50;;;;;;;;;;21083248;28;20147;-62
2023/02/17 07:09:05;;;;;;;12.50;5.45;;;;;;;;;;21082327;28;20102;-63
2023/02/17 07:19:08;;;;;;;11.55;7.45;;;;;;;;;;21081317;28;20118;-61
2023/02/17 07:29:09;;;;;;;16.67;5.70;;;;;;;;;;21081614;28;20525;-61
2023/02/17 07:39:11;;;;;;;16.38;6.22;;;;;;;;;;21063232;28;20052;-60
2023/02/17 07:49:13;;;;;;;13.35;6.65;;;;;;;;;;20997512;28;20056;-61
2023/02/17 07:59:15;;;;;;;17.17;7.00;;;;;;;;;;20996127;28;20371;-61
2023/02/17 08:19:38;;;;;;;12.07;5.65;;;;;;;;;;20994547;28;20045;-61
2023/02/17 08:29:40;;;;;;;12.32;6.55;;;;;;;;;;20995046;28;20496;-59
2023/02/17 08:39:42;;;;;;;11.15;5.95;;;;;;;;;;21007162;28;20051;-60
2023/02/17 08:49:44;;;;;;;14.57;6.22;;;;;;;;;;21010462;28;20561;-60
2023/02/17 08:59:48;;;;;;;16.35;7.20;;;;;;;;;;21010177;28;20099;-62
2023/02/17 09:09:50;;;;;;;11.00;6.05;;;;;;;;;;21009011;28;20486;-61
2023/02/17 09:19:52;;;;;;;12.13;6.32;;;;;;;;;;21008630;28;20135;-59
2023/02/17 09:29:53;;;;;;;13.75;6.50;;;;;;;;;;21008808;28;20144;-61
2023/02/17 09:39:55;;;;;;;11.85;5.97;;;;;;;;;;21027305;28;20138;-60
2023/02/17 09:50:00;;;;;;;12.25;5.90;;;;;;;;;;21087605;28;20048;-61
2023/02/17 10:00:31;;;;;;;9.95;5.00;;;;;;;;;;21087982;28;20139;-61
2023/02/17 10:10:59;;;;;;;10.18;5.18;;;;;;;;;;21069740;28;20507;-61
2023/02/17 10:21:11;;;;;;;9.02;5.57;;;;;;;;;;21054663;28;20063;-61
2023/02/17 10:31:19;;;;;;;12.35;6.28;;;;;;;;;;21085932;28;20501;-62
2023/02/17 10:41:25;;;;;;;10.40;5.13;;;;;;;;;;21051194;28;20152;-61
2023/02/17 10:51:30;;;;;;;11.02;5.25;;;;;;;;;;21000689;28;20517;-60
2023/02/17 11:01:32;;;;;;;7.65;4.93;;;;;;;;;;20998101;28;20100;-62
2023/02/17 11:11:35;;;;;;;7.53;3.92;;;;;;;;;;20999043;28;20498;-63
2023/02/17 11:21:42;;;;;;;6.65;3.60;;;;;;;;;;20997525;28;20149;-70
2023/02/17 11:32:18;;;;;;;6.47;3.50;;;;;;;;;;20996646;28;20040;-69
2023/02/17 11:42:24;;;;;;;8.13;3.28;;;;;;;;;;20661238;28;20053;-68
2023/02/17 11:52:26;;;;;;;9.73;2.80;;;;;;;;;;20740410;28;20088;-67
2023/02/17 12:02:30;;;;;;;6.30;2.80;;;;;;;;;;20740199;28;20078;-68
2023/02/17 12:12:38;;;;;;;8.40;3.05;;;;;;;;;;20857002;28;20048;-64
2023/02/17 12:22:54;;;;;;;6.38;3.08;;;;;;;;;;21078521;28;20066;-63
2023/02/17 12:33:02;;;;;;;8.40;3.50;;;;;;;;;;21077168;28;20079;-68
2023/02/17 12:43:22;;;;;;;8.20;2.95;;;;;;;;;;21077161;28;20106;-62
2023/02/17 12:53:43;;;;;;;5.82;3.35;;;;;;;;;;21080497;28;20101;-62
2023/02/17 13:03:45;;;;;;;4.80;3.40;;;;;;;;;;21078613;28;20521;-63
2023/02/17 13:13:47;;;;;;;5.97;3.55;;;;;;;;;;21077571;28;20040;-62
2023/02/17 13:24:13;;;;;;;10.70;3.80;;;;;;;;;;21085684;28;20097;-65
2023/02/17 13:34:24;;;;;;;7.97;3.78;;;;;;;;;;20750980;28;20072;-63
2023/02/17 13:44:26;;;;;;;5.50;3.10;;;;;;;;;;20749795;28;20124;-64
2023/02/17 13:54:28;;;;;;;6.95;3.20;;;;;;;;;;20751001;28;20133;-63
2023/02/17 14:04:31;;;;;;;5.60;3.38;;;;;;;;;;20802743;28;20537;-64
2023/02/17 14:14:34;;;;;;;8.90;3.97;;;;;;;;;;21004872;28;20055;-64
2023/02/17 14:24:36;;;;;;;7.00;3.00;;;;;;;;;;21002886;28;20052;-63
2023/02/17 14:34:38;;;;;;;10.32;2.80;;;;;;;;;;21002044;28;20044;-64
2023/02/17 14:44:41;;;;;;;4.35;1.35;;;;;;;;;;21063886;28;20144;-63
2023/02/17 14:54:44;;;;;;;4.70;1.55;;;;;;;;;;21085248;28;20048;-63
2023/02/17 15:04:45;;;;;;;2.20;1.10;;;;;;;;;;21082793;28;20055;-63
2023/02/17 15:14:48;;;;;;;1.42;0.82;;;;;;;;;;21083958;28;20066;-62
2023/02/17 15:24:50;;;;;;;14.50;6.72;;;;;;;;;;21083060;28;20052;-63
2023/02/17 15:35:00;;;;;;;3.00;1.50;;;;;;;;;;21082271;28;20040;-63
2023/02/17 15:45:02;;;;;;;4.38;1.20;;;;;;;;;;21080712;28;20421;-63
2023/02/17 15:55:05;;;;;;;5.60;1.70;;;;;;;;;;21081595;28;20039;-62
2023/02/17 16:05:09;;;;;;;2.35;1.15;;;;;;;;;;21080884;28;20052;-63
2023/02/17 16:15:13;;;;;;;3.40;1.50;;;;;;;;;;21080991;28;20040;-63
2023/02/17 16:25:16;;;;;;;2.53;1.13;;;;;;;;;;21079896;28;20431;-63
2023/02/17 16:35:19;;;;;;;27.92;17.90;;;;;;;;;;21077770;28;20066;-64
2023/02/17 16:45:23;;;;;;;5.07;1.50;;;;;;;;;;21077588;28;20128;-66
2023/02/17 16:55:28;;;;;;;4.82;1.30;;;;;;;;;;21083520;28;20048;-65
2023/02/17 17:05:30;;;;;;;2.35;1.20;;;;;;;;;;21095304;28;20446;-65
2023/02/17 17:15:34;;;;;;;5.75;1.13;;;;;;;;;;21093271;28;20486;-65
2023/02/17 17:25:38;;;;;;;6.60;0.90;;;;;;;;;;21092354;28;20504;-63
2023/02/17 17:35:40;;;;;;;3.08;1.30;;;;;;;;;;21091170;28;20559;-67
2023/02/17 17:45:48;;;;;;;5.75;1.35;;;;;;;;;;21089436;28;20532;-67
2023/02/17 17:55:50;;;;;;;3.88;1.50;;;;;;;;;;21089437;28;20409;-64
2023/02/17 18:05:52;;;;;;;5.05;1.50;;;;;;;;;;21086059;28;20120;-69
2023/02/17 18:15:54;;;;;;;4.88;2.03;;;;;;;;;;21088866;28;20055;-67
2023/02/17 18:25:56;;;;;;;3.38;1.77;;;;;;;;;;21087686;28;20083;-65
2023/02/17 18:36:05;;;;;;;4.93;1.70;;;;;;;;;;21085267;28;20051;-66
2023/02/17 18:46:08;;;;;;;5.10;2.23;;;;;;;;;;21084830;28;20056;-68
2023/02/17 18:56:14;;;;;;;11.02;4.38;;;;;;;;;;21086058;28;20123;-65
2023/02/17 19:06:17;;;;;;;15.25;5.50;;;;;;;;;;21083496;28;20051;-64
2023/02/17 19:16:21;;;;;;;12.68;5.25;;;;;;;;;;21083026;28;20398;-70
2023/02/17 19:26:23;;;;;;;12.82;5.22;;;;;;;;;;21082835;28;20055;-65
2023/02/17 19:36:25;;;;;;;14.70;4.80;;;;;;;;;;21080131;28;20044;-63
2023/02/17 19:46:27;;;;;;;8.80;4.10;;;;;;;;;;21080727;28;20063;-64
2023/02/17 19:56:30;;;;;;;12.40;5.43;;;;;;;;;;21081791;28;20075;-64
2023/02/17 20:06:53;;;;;;;13.35;4.95;;;;;;;;;;21078860;28;20063;-62
2023/02/17 20:16:55;;;;;;;15.05;5.97;;;;;;;;;;21078764;28;20040;-64
2023/02/17 20:26:56;;;;;;;13.73;5.95;;;;;;;;;;21078780;28;20084;-64
2023/02/17 20:36:58;;;;;;;12.60;4.47;;;;;;;;;;21096250;28;20463;-65
2023/02/17 20:47:01;;;;;;;11.07;4.45;;;;;;;;;;21094088;28;20485;-64
2023/02/17 20:57:03;;;;;;;7.47;3.22;;;;;;;;;;21094854;28;20040;-62
2023/02/17 21:07:05;;;;;;;9.77;3.58;;;;;;;;;;21093685;28;20103;-64
2023/02/17 21:17:06;;;;;;;9.63;4.32;;;;;;;;;;21092352;28;20076;-63
2023/02/17 21:27:08;;;;;;;7.10;3.92;;;;;;;;;;21090491;28;20052;-64
2023/02/17 21:37:10;;;;;;;12.93;4.93;;;;;;;;;;21090950;28;20048;-64
2023/02/17 21:47:12;;;;;;;7.55;3.10;;;;;;;;;;21072540;28;20055;-62
2023/02/17 21:57:13;;;;;;;7.93;2.78;;;;;;;;;;21089881;28;20130;-62
2023/02/17 22:07:15;;;;;;;4.55;2.40;;;;;;;;;;21088833;28;20591;-62
2023/02/17 22:17:17;;;;;;;10.55;5.35;;;;;;;;;;21087910;28;20068;-62
2023/02/17 22:27:19;;;;;;;5.47;2.38;;;;;;;;;;21085947;28;20056;-62
2023/02/17 22:37:20;;;;;;;5.68;1.70;;;;;;;;;;21087198;28;20077;-63
2023/02/17 22:47:22;;;;;;;3.75;1.77;;;;;;;;;;21086735;28;20073;-64
2023/02/17 22:57:24;;;;;;;5.50;2.20;;;;;;;;;;21089513;28;20048;-62
2023/02/17 23:07:25;;;;;;;4.63;2.10;;;;;;;;;;21065136;28;20055;-62
2023/02/17 23:17:55;;;;;;;6.72;2.88;;;;;;;;;;21082272;28;20055;-63
2023/02/17 23:27:50;;;;;;;9.32;3.17;;;;;;;;;;21081191;28;20086;-64
2023/02/17 23:37:51;;;;;;;4.93;2.58;;;;;;;;;;21081267;28;20472;-62
2023/02/17 23:47:54;;;;;;;8.27;2.55;;;;;;;;;;21079869;28;20055;-63
2023/02/17 23:57:55;;;;;;;6.95;3.08;;;;;;;;;;21080782;28;20047;-65
